Pagrindinis puslapis
METAR-TAF:

METAR-TAF

Oro uostai :

Voronežas, Rusija

platuma: 51-39N, ilguma: 039-15E, Aukštis: 154 m

Dabartinis oras

Ataskaita buvo paskelbta 39 minutes, ne 09:30 UTC
Vėjas 8 kt iš Pietryčių
Temperatūra 1°C
Drėgmė 100%
Slėgis 1030 hPa
Matomumas 10 km arba daugiau
Apsiniaukę ne aukštis 700 ft

METAR: UUOO 190930Z 13004MPS 9999 OVC007 01/01 Q1030 R12/290155 NOSIG RMK QFE758

Laikas: 13:09 (10:09 UTC)

Prognozė

Ataskaita buvo paskelbta 2 valandos ir 9 minutes, ne 08:00 UTC
Prognozė galioja nuo 19 metu 09 UTC su 19 metu 18 UTC
Vėjas 6 kt iš Rytų
Matomumas: 4000 m
Apsiniaukę ne aukštis 500 ft
dulksna, rūkana
Laikinai
nuo 19 metu 09 UTC su 19 metu 15 UTC
Apsiniaukę ne aukštis 300 ft

TAF: UUOO 190800Z 1909/1918 10003MPS 4000 -DZ BR OVC005 TEMPO 1909/1915 OVC003

Orai ataskaitas ir orų prognozės (METAR, TAF).

turimą stotys yra geltonos ir raudonos taškus žemėlapyje.

Perkelti pele per norėdami pamatyti stoties vardą.

Tada spustelėkite, norėdami matyti oro stebėjimo ir prognozės.

Norėdami pakeisti žemėlapį: spustelėkite ant žalios mygtukų su juodo kryžiaus žemyn,; žalią mygtuką su brūkšneliu, jei norite nutolinti; arba žalių rodyklių gretimoms žemėlapius.


METAR-TAF: